Time;durP1;ratioP1;P1;durP2;ratioP2;P2;SDS_P1;SDS_P2;PMS_P1;PMS_P2;Temp;Humidity;BMP_temperature;BMP_pressure;BME280_temperature;BME280_humidity;BME280_pressure;Samples;Min_cycle;Max_cycle;Signal;HPM_P1;HPM_P2
2020/12/16 00:00:11;;;;;;;20.27;8.82;;;6.50;99.90;;;;;;4903642;29;20032;-96
2020/12/16 00:02:38;;;;;;;25.48;10.43;;;6.50;99.90;;;;;;4924197;29;20067;-96
2020/12/16 00:05:05;;;;;;;22.67;8.57;;;6.50;99.90;;;;;;4906363;29;20047;-96
2020/12/16 00:07:31;;;;;;;28.48;10.65;;;6.50;99.90;;;;;;4909113;29;20051;-95
2020/12/16 00:09:57;;;;;;;26.08;10.02;;;6.60;99.90;;;;;;4908020;29;20039;-96
2020/12/16 00:12:23;;;;;;;24.40;9.20;;;6.60;99.90;;;;;;4920950;29;20027;-96
2020/12/16 00:14:51;;;;;;;35.17;10.95;;;6.60;99.90;;;;;;4923481;29;20047;-95
2020/12/16 00:17:18;;;;;;;27.88;8.80;;;6.60;99.90;;;;;;4918927;29;20020;-95
2020/12/16 00:19:44;;;;;;;23.75;9.15;;;6.60;99.90;;;;;;4903721;29;20060;-95
2020/12/16 00:22:09;;;;;;;31.58;10.95;;;6.60;99.90;;;;;;4919616;29;20028;-96
2020/12/16 00:24:35;;;;;;;27.45;8.90;;;6.70;99.90;;;;;;4901116;29;20035;-96
2020/12/16 00:27:02;;;;;;;20.38;7.63;;;6.70;99.90;;;;;;4917665;29;20051;-96
2020/12/16 00:29:27;;;;;;;17.73;7.68;;;6.60;99.90;;;;;;4918295;29;20056;-95
2020/12/16 00:31:53;;;;;;;23.88;8.98;;;6.70;99.90;;;;;;4901339;29;20020;-95
2020/12/16 00:34:19;;;;;;;22.42;9.15;;;6.70;99.90;;;;;;4902464;29;20028;-95
2020/12/16 00:36:44;;;;;;;26.17;8.82;;;6.70;99.90;;;;;;4918493;29;20024;-96
2020/12/16 00:39:12;;;;;;;26.40;8.45;;;6.70;99.90;;;;;;4902988;29;20036;-95
2020/12/16 00:41:38;;;;;;;27.17;7.35;;;6.70;99.90;;;;;;4904289;29;20035;-95
2020/12/16 00:44:04;;;;;;;23.98;6.10;;;6.80;99.90;;;;;;4920810;29;20398;-96
2020/12/16 00:46:30;;;;;;;25.83;6.95;;;6.80;99.90;;;;;;4931200;29;20119;-95
2020/12/16 00:48:56;;;;;;;15.95;6.90;;;6.90;99.90;;;;;;4916033;29;20022;-94
2020/12/16 00:51:22;;;;;;;24.45;6.97;;;6.90;99.90;;;;;;4921734;29;20044;-95
2020/12/16 00:53:47;;;;;;;24.42;7.80;;;6.90;99.90;;;;;;4939855;29;20084;-95
2020/12/16 00:56:13;;;;;;;23.48;7.47;;;6.90;99.90;;;;;;4911613;29;20060;-95
2020/12/16 00:58:39;;;;;;;23.02;7.57;;;6.90;99.90;;;;;;4905077;29;20016;-95
2020/12/16 01:01:05;;;;;;;17.05;7.15;;;6.90;99.90;;;;;;4903666;29;20462;-95
2020/12/16 01:03:32;;;;;;;26.95;8.02;;;7.00;99.90;;;;;;4903594;29;20024;-95
2020/12/16 01:05:58;;;;;;;18.17;7.07;;;7.00;99.90;;;;;;4919270;29;20048;-93
2020/12/16 01:08:24;;;;;;;18.30;8.18;;;7.00;99.90;;;;;;4903440;29;20024;-96
2020/12/16 01:10:49;;;;;;;21.73;8.10;;;7.00;99.90;;;;;;4903785;29;20148;-95
2020/12/16 01:13:15;;;;;;;27.73;7.63;;;7.00;99.90;;;;;;4902895;29;20040;-95
2020/12/16 01:15:41;;;;;;;18.95;7.05;;;7.00;99.90;;;;;;4903006;29;20103;-95
2020/12/16 01:18:07;;;;;;;29.08;7.80;;;7.10;99.90;;;;;;4919545;29;20521;-96
2020/12/16 01:20:32;;;;;;;17.20;6.95;;;7.10;99.90;;;;;;4902269;29;20051;-94
2020/12/16 01:22:58;;;;;;;25.50;8.02;;;7.10;99.90;;;;;;4901155;29;20036;-95
2020/12/16 01:25:25;;;;;;;25.77;8.65;;;7.10;99.90;;;;;;4918279;29;20414;-95
2020/12/16 01:27:55;;;;;;;25.92;8.25;;;7.10;99.90;;;;;;4916948;29;20036;-95
2020/12/16 01:30:21;;;;;;;23.55;8.30;;;7.20;99.90;;;;;;4918218;29;20054;-95
2020/12/16 01:32:50;;;;;;;24.88;8.10;;;7.10;99.90;;;;;;4917289;29;20059;-95
2020/12/16 01:35:16;;;;;;;18.45;7.78;;;7.20;99.90;;;;;;4916502;29;20028;-95
2020/12/16 01:37:42;;;;;;;25.50;7.65;;;7.20;99.90;;;;;;4916651;29;20035;-95
2020/12/16 01:40:09;;;;;;;18.15;6.72;;;7.20;99.90;;;;;;4900458;29;20072;-95
2020/12/16 01:42:39;;;;;;;28.90;8.25;;;7.20;99.90;;;;;;4919280;29;20055;-96
2020/12/16 01:45:09;;;;;;;22.13;6.78;;;7.20;99.90;;;;;;4904193;29;20032;-96
2020/12/16 01:47:36;;;;;;;;;;;7.20;99.90;;;;;;4921961;29;20039;-96
2020/12/16 01:50:06;;;;;;;20.73;6.90;;;7.30;99.90;;;;;;4905836;29;20428;-95
2020/12/16 01:52:33;;;;;;;19.17;7.80;;;7.30;99.90;;;;;;4904297;29;20059;-96
2020/12/16 01:54:59;;;;;;;18.58;7.60;;;7.30;99.90;;;;;;4905770;29;20036;-96
2020/12/16 01:57:26;;;;;;;26.40;9.05;;;7.30;99.90;;;;;;4920105;29;20032;-95
2020/12/16 01:59:52;;;;;;;19.88;8.35;;;7.30;99.90;;;;;;4921749;29;20040;-96
2020/12/16 02:02:24;;;;;;;24.48;7.18;;;7.40;99.90;;;;;;4906362;29;20550;-96
2020/12/16 02:04:50;;;;;;;20.52;6.50;;;7.30;99.90;;;;;;4925653;29;20052;-96
2020/12/16 02:07:19;;;;;;;24.17;7.53;;;7.30;99.90;;;;;;4933735;29;20024;-96
2020/12/16 02:09:48;;;;;;;21.00;7.15;;;7.30;99.90;;;;;;4933098;29;20076;-96
2020/12/16 02:12:16;;;;;;;26.33;6.93;;;7.30;99.90;;;;;;4914924;29;20032;-96
2020/12/16 02:14:43;;;;;;;14.57;6.72;;;7.40;99.90;;;;;;4930618;29;20079;-96
2020/12/16 02:17:09;;;;;;;23.92;7.00;;;7.40;99.90;;;;;;4932162;29;20085;-96
2020/12/16 02:19:46;;;;;;;24.27;6.82;;;7.40;99.90;;;;;;4913086;29;20037;-96
2020/12/16 02:22:15;;;;;;;22.63;5.90;;;7.30;99.90;;;;;;4895270;29;20028;-96
2020/12/16 02:25:06;;;;;;;23.20;6.45;;;7.40;99.90;;;;;;4925825;29;20024;-95
2020/12/16 02:27:32;;;;;;;12.82;5.28;;;7.40;99.90;;;;;;4909340;29;20032;-95
2020/12/16 02:29:59;;;;;;;21.52;5.38;;;7.40;99.90;;;;;;4930506;29;20026;-95
2020/12/16 02:32:27;;;;;;;20.13;7.07;;;7.30;99.90;;;;;;4912433;29;20100;-96
2020/12/16 02:34:54;;;;;;;22.08;5.60;;;7.40;99.90;;;;;;4908847;29;20024;-96
2020/12/16 02:37:22;;;;;;;23.25;6.90;;;7.30;99.90;;;;;;4923416;29;20032;-95
2020/12/16 02:39:49;;;;;;;17.75;5.63;;;7.30;99.90;;;;;;4904658;29;20106;-94
2020/12/16 02:42:20;;;;;;;15.88;5.78;;;7.30;99.90;;;;;;4905351;29;20107;-96
2020/12/16 02:44:46;;;;;;;13.82;5.07;;;7.40;99.90;;;;;;4924991;29;20042;-96
2020/12/16 02:47:12;;;;;;;23.70;6.40;;;7.40;99.90;;;;;;4911323;29;20024;-96
2020/12/16 02:49:37;;;;;;;12.40;4.63;;;7.40;99.90;;;;;;4904327;29;20502;-95
2020/12/16 02:52:03;;;;;;;19.50;6.18;;;7.40;99.90;;;;;;4902965;29;20070;-96
2020/12/16 02:54:29;;;;;;;18.45;6.20;;;7.40;99.90;;;;;;4920855;29;20149;-96
2020/12/16 02:56:55;;;;;;;18.85;5.55;;;7.40;99.90;;;;;;4918429;29;20145;-95
2020/12/16 02:59:23;;;;;;;19.50;5.50;;;7.40;99.90;;;;;;4901816;29;20039;-96
2020/12/16 03:01:50;;;;;;;17.65;6.28;;;7.40;99.90;;;;;;4918200;29;20393;-95
2020/12/16 03:04:16;;;;;;;17.70;5.68;;;7.40;99.90;;;;;;4904919;29;20032;-94
2020/12/16 03:06:44;;;;;;;18.83;5.82;;;7.40;99.90;;;;;;4904908;29;20028;-96
2020/12/16 03:09:09;;;;;;;20.80;5.60;;;7.40;99.90;;;;;;4906407;29;20031;-95
2020/12/16 03:11:35;;;;;;;18.55;5.78;;;7.40;99.90;;;;;;4906693;29;20032;-95
2020/12/16 03:14:00;;;;;;;19.40;4.95;;;7.40;99.90;;;;;;4905650;29;20028;-95
2020/12/16 03:16:26;;;;;;;17.42;6.05;;;7.40;99.90;;;;;;4903653;29;20119;-95
2020/12/16 03:18:52;;;;;;;14.75;4.07;;;7.40;99.90;;;;;;4904275;29;20039;-96
2020/12/16 03:21:25;;;;;;;23.67;7.53;;;7.40;99.90;;;;;;4910437;29;20020;-96
2020/12/16 03:23:52;;;;;;;14.85;5.30;;;7.40;99.90;;;;;;4924501;29;20418;-96
2020/12/16 03:26:18;;;;;;;11.52;4.60;;;7.40;99.90;;;;;;4922448;29;20024;-95
2020/12/16 03:28:48;;;;;;;15.68;4.45;;;7.50;99.90;;;;;;4905521;29;20028;-96
2020/12/16 03:31:15;;;;;;;14.32;4.25;;;7.50;99.90;;;;;;4920991;29;20603;-95
2020/12/16 03:33:42;;;;;;;7.35;3.55;;;7.50;99.90;;;;;;4904863;29;20024;-95
2020/12/16 03:36:19;;;;;;;13.88;4.38;;;7.50;99.90;;;;;;4906216;29;20033;-96
2020/12/16 03:38:47;;;;;;;14.77;4.65;;;7.50;99.90;;;;;;4921302;29;20020;-96
2020/12/16 03:41:14;;;;;;;11.25;3.78;;;7.50;99.90;;;;;;4923557;29;20063;-96
2020/12/16 03:43:43;;;;;;;8.88;3.00;;;7.50;99.90;;;;;;4926472;29;20020;-96
2020/12/16 03:48:44;;;;;;;12.93;3.95;;;7.50;99.90;;;;;;5368868;23;20060;-96
2020/12/16 03:51:12;;;;;;;14.70;3.60;;;7.50;99.90;;;;;;4913129;29;20123;-96
2020/12/16 03:53:39;;;;;;;13.50;4.20;;;7.50;99.90;;;;;;4931799;29;20119;-96
2020/12/16 03:56:14;;;;;;;13.02;3.55;;;7.50;99.90;;;;;;4912685;29;20123;-96
2020/12/16 03:58:45;;;;;;;14.57;3.00;;;7.50;99.90;;;;;;4907658;29;20035;-96
2020/12/16 04:01:13;;;;;;;15.70;3.28;;;7.50;99.90;;;;;;4912530;29;20039;-96
2020/12/16 04:03:39;;;;;;;10.23;2.65;;;7.50;99.90;;;;;;4914622;29;20035;-95
2020/12/16 04:06:10;;;;;;;17.08;2.80;;;7.50;99.90;;;;;;4914365;29;20032;-94
2020/12/16 04:08:37;;;;;;;17.25;3.10;;;7.50;99.90;;;;;;4927985;29;20040;-96
2020/12/16 04:11:08;;;;;;;19.15;3.85;;;7.50;99.90;;;;;;4913831;29;20105;-96
2020/12/16 04:13:33;;;;;;;;;;;7.50;99.90;;;;;;4935707;29;20019;-96
2020/12/16 04:15:59;;;;;;;16.10;3.13;;;7.60;99.90;;;;;;4921659;29;20349;-95
2020/12/16 04:18:25;;;;;;;13.27;2.75;;;7.50;99.90;;;;;;4940702;29;20012;-96
2020/12/16 04:20:53;;;;;;;8.00;2.33;;;7.60;99.90;;;;;;4925010;29;20065;-96
2020/12/16 04:23:19;;;;;;;11.35;2.45;;;7.60;99.90;;;;;;4927721;29;20394;-96
2020/12/16 04:25:45;;;;;;;12.90;2.78;;;7.60;99.90;;;;;;4930996;29;20028;-95
2020/12/16 04:28:10;;;;;;;11.73;2.70;;;7.60;99.90;;;;;;4915533;29;20024;-96
2020/12/16 04:30:36;;;;;;;12.60;3.00;;;7.60;99.90;;;;;;4916627;29;20028;-96
2020/12/16 04:33:02;;;;;;;7.88;2.08;;;7.60;99.90;;;;;;4915346;29;20028;-96
2020/12/16 04:35:28;;;;;;;10.25;2.00;;;7.60;99.90;;;;;;4918577;29;20498;-96
2020/12/16 04:37:55;;;;;;;8.02;3.28;;;7.60;99.90;;;;;;4915516;29;20032;-96
2020/12/16 04:40:22;;;;;;;9.93;2.83;;;7.70;99.90;;;;;;4916324;29;20072;-96
2020/12/16 04:43:06;;;;;;;11.90;3.63;;;7.60;99.90;;;;;;4916993;29;20032;-96
2020/12/16 04:45:32;;;;;;;13.07;2.72;;;7.70;99.90;;;;;;4919101;29;20052;-96
2020/12/16 04:47:58;;;;;;;8.15;2.33;;;7.70;99.90;;;;;;4921397;29;20048;-96
2020/12/16 04:50:24;;;;;;;10.55;2.70;;;7.70;99.90;;;;;;5119476;23;20080;-96
2020/12/16 04:52:51;;;;;;;15.65;2.83;;;7.70;99.90;;;;;;4934106;29;20107;-96
2020/12/16 04:55:18;;;;;;;15.60;2.85;;;7.70;99.90;;;;;;4934005;29;20103;-96
2020/12/16 04:57:55;;;;;;;11.10;2.47;;;7.70;99.90;;;;;;4918068;29;20004;-96
2020/12/16 05:00:24;;;;;;;10.35;2.47;;;7.70;99.90;;;;;;4917626;29;20040;-96
2020/12/16 05:02:58;;;;;;;9.10;2.17;;;7.70;99.90;;;;;;4938242;29;20043;-96
2020/12/16 05:05:25;;;;;;;9.48;2.10;;;7.70;99.90;;;;;;4921888;29;20060;-96
2020/12/16 05:10:34;;;;;;;7.65;1.95;;;7.60;99.90;;;;;;5228824;23;20062;-95
2020/12/16 05:13:07;;;;;;;11.50;2.45;;;7.60;99.90;;;;;;4944355;29;20060;-94
2020/12/16 05:15:37;;;;;;;9.85;2.35;;;7.60;99.90;;;;;;4939546;29;20046;-96
2020/12/16 05:18:12;;;;;;;19.98;4.75;;;7.60;99.90;;;;;;4932417;29;20038;-95
2020/12/16 05:20:49;;;;;;;9.90;2.25;;;7.60;99.90;;;;;;4941787;29;20503;-95
2020/12/16 05:23:16;;;;;;;15.63;3.33;;;7.60;99.90;;;;;;4932104;29;20030;-94
2020/12/16 05:26:02;;;;;;;22.30;2.40;;;7.60;99.90;;;;;;4960098;29;20028;-95
2020/12/16 05:28:30;;;;;;;11.50;2.30;;;7.60;99.90;;;;;;4936477;29;20028;-96
2020/12/16 05:30:56;;;;;;;16.27;2.42;;;7.60;99.90;;;;;;4943568;29;20130;-96
2020/12/16 05:33:26;;;;;;;10.27;2.10;;;7.60;99.90;;;;;;4926657;29;20056;-96
2020/12/16 05:38:29;;;;;;;11.95;2.72;;;7.60;99.90;;;;;;5166424;23;20056;-94
2020/12/16 05:40:55;;;;;;;23.73;3.55;;;7.60;99.90;;;;;;4918440;29;20050;-96
2020/12/16 05:43:26;;;;;;;16.83;2.85;;;7.70;99.90;;;;;;4929814;29;20020;-94
2020/12/16 05:45:52;;;;;;;8.13;1.75;;;7.70;99.90;;;;;;4918141;29;20102;-94
2020/12/16 05:48:18;;;;;;;14.88;2.50;;;7.70;99.90;;;;;;4911270;29;20020;-94
2020/12/16 05:55:51;;;;;;;15.88;2.15;;;7.70;99.90;;;;;;4929615;29;20080;-94
2020/12/16 05:58:18;;;;;;;12.20;2.75;;;7.70;99.90;;;;;;4919366;29;20063;-96
2020/12/16 06:15:45;;;;;;;15.82;3.45;;;7.70;99.90;;;;;;1555281;23;20324;-95
2020/12/16 06:18:15;;;;;;;13.05;2.47;;;7.70;99.90;;;;;;4895763;29;20075;-95
2020/12/16 06:20:42;;;;;;;12.10;3.13;;;7.70;99.90;;;;;;4899971;29;20078;-95
2020/12/16 06:23:29;;;;;;;9.02;2.97;;;7.80;99.90;;;;;;4901598;29;20025;-96
2020/12/16 06:31:27;;;;;;;18.75;3.35;;;7.80;99.90;;;;;;1080453;23;20298;-91
2020/12/16 06:41:36;;;;;;;10.55;3.15;;;7.80;99.90;;;;;;5003656;23;20030;-95
2020/12/16 06:44:16;;;;;;;16.23;4.68;;;7.80;99.90;;;;;;4922649;29;20124;-96
2020/12/16 06:46:46;;;;;;;8.40;2.80;;;7.80;99.90;;;;;;4940042;29;20032;-96
2020/12/16 06:49:35;;;;;;;15.05;2.70;;;7.80;99.90;;;;;;4921121;29;20024;-95
2020/12/16 06:52:10;;;;;;;9.68;2.47;;;7.80;99.90;;;;;;4923113;29;20012;-95
2020/12/16 06:54:41;;;;;;;10.77;2.60;;;7.80;99.90;;;;;;4921785;29;20501;-95
2020/12/16 07:54:27;;;;;;;18.83;2.42;;;7.80;99.90;;;;;;5249406;23;20045;-95
2020/12/16 07:56:53;;;;;;;5.55;1.92;;;7.80;99.90;;;;;;4922271;29;20028;-95
2020/12/16 08:09:59;;;;;;;7.78;1.92;;;7.80;99.90;;;;;;4920100;29;20048;-95
2020/12/16 08:12:27;;;;;;;9.55;1.90;;;7.80;99.90;;;;;;4904515;29;20039;-94
2020/12/16 08:15:11;;;;;;;8.20;1.50;;;7.80;99.90;;;;;;4906944;29;20032;-96
2020/12/16 08:30:59;;;;;;;7.07;1.85;;;7.80;99.90;;;;;;5163304;23;20044;-95
2020/12/16 08:33:27;;;;;;;6.88;1.58;;;7.80;99.90;;;;;;4892755;29;20043;-95
2020/12/16 08:36:02;;;;;;;12.60;2.00;;;7.80;99.90;;;;;;4905791;29;20036;-95
2020/12/16 08:38:33;;;;;;;8.80;2.65;;;7.80;99.90;;;;;;4924856;29;20111;-95
2020/12/16 08:41:01;;;;;;;7.88;1.77;;;7.80;99.90;;;;;;4925887;29;20060;-95
2020/12/16 08:43:32;;;;;;;5.55;1.90;;;7.80;99.90;;;;;;4940320;23;20079;-94
2020/12/16 08:46:16;;;;;;;8.85;2.10;;;7.80;99.90;;;;;;4907473;29;20091;-96
2020/12/16 08:48:53;;;;;;;6.93;1.88;;;7.90;99.90;;;;;;5108981;23;20018;-94
2020/12/16 08:51:31;;;;;;;7.82;1.63;;;7.90;99.90;;;;;;4898285;29;20044;-93
2020/12/16 08:54:02;;;;;;;10.73;2.08;;;7.90;99.90;;;;;;4884069;29;20031;-95
2020/12/16 08:56:37;;;;;;;4.10;1.50;;;7.90;99.90;;;;;;4900928;29;20033;-96
2020/12/16 08:59:18;;;;;;;6.47;1.80;;;7.90;99.90;;;;;;4901282;29;20083;-95
2020/12/16 09:01:52;;;;;;;8.45;2.33;;;7.90;99.90;;;;;;4901368;29;20067;-95
2020/12/16 09:04:29;;;;;;;9.55;2.20;;;7.90;99.90;;;;;;4881967;29;20025;-96
2020/12/16 09:07:12;;;;;;;5.82;1.70;;;7.90;99.90;;;;;;4883158;29;20068;-94
2020/12/16 09:09:45;;;;;;;6.80;1.65;;;7.90;99.90;;;;;;4899203;29;20020;-94
2020/12/16 09:12:15;;;;;;;10.10;2.65;;;7.90;99.90;;;;;;4884651;29;20032;-96
2020/12/16 09:14:58;;;;;;;9.52;3.47;;;7.90;99.90;;;;;;4883583;29;20111;-95
2020/12/16 09:17:26;;;;;;;14.73;2.70;;;7.90;99.90;;;;;;4889684;29;20048;-95
2020/12/16 09:19:52;;;;;;;8.70;2.35;;;7.90;99.90;;;;;;4881520;29;20406;-96
2020/12/16 09:22:22;;;;;;;14.60;2.97;;;7.90;99.90;;;;;;4898204;29;20427;-95
2020/12/16 09:24:48;;;;;;;;;;;7.90;99.90;;;;;;4882844;29;20060;-95
2020/12/16 09:27:14;;;;;;;8.55;2.20;;;7.90;99.90;;;;;;4883009;29;19963;-95
2020/12/16 09:29:44;;;;;;;9.45;2.55;;;7.90;99.90;;;;;;4900566;29;20099;-95
2020/12/16 09:32:18;;;;;;;9.93;2.53;;;7.90;99.90;;;;;;4894108;29;20047;-95
2020/12/16 09:34:48;;;;;;;13.13;2.58;;;8.00;99.90;;;;;;4899370;29;20039;-95
2020/12/16 09:37:16;;;;;;;12.67;2.87;;;8.00;99.90;;;;;;4897996;29;20063;-95
2020/12/16 09:39:44;;;;;;;9.45;2.15;;;8.00;99.90;;;;;;4907181;29;20300;-95
2020/12/16 09:42:15;;;;;;;7.55;2.22;;;8.10;99.90;;;;;;4892159;29;20491;-95
2020/12/16 09:44:42;;;;;;;11.13;3.10;;;8.10;99.90;;;;;;4907472;29;20037;-95
2020/12/16 09:47:24;;;;;;;15.40;2.47;;;8.10;99.90;;;;;;4916057;29;20170;-94
2020/12/16 09:50:00;;;;;;;12.70;2.10;;;8.10;99.90;;;;;;4917773;29;20113;-94
2020/12/16 09:52:38;;;;;;;7.57;2.03;;;8.10;99.90;;;;;;4916577;29;20036;-94
2020/12/16 09:55:19;;;;;;;9.02;2.35;;;8.10;99.90;;;;;;4915127;29;20024;-96
2020/12/16 09:58:05;;;;;;;12.55;2.00;;;8.10;99.90;;;;;;4915215;29;20021;-94
2020/12/16 10:00:33;;;;;;;9.75;2.58;;;8.10;99.90;;;;;;4917420;29;20028;-95
2020/12/16 10:03:10;;;;;;;9.80;2.20;;;8.10;99.90;;;;;;4918182;29;20025;-94
2020/12/16 10:05:37;;;;;;;9.10;1.95;;;8.20;99.90;;;;;;4916712;29;20039;-94
2020/12/16 10:08:05;;;;;;;14.73;2.85;;;8.20;99.90;;;;;;4918621;29;20519;-94
2020/12/16 10:10:32;;;;;;;12.77;2.53;;;8.20;99.90;;;;;;4912973;29;20032;-95
2020/12/16 10:12:59;;;;;;;8.13;2.70;;;8.20;99.90;;;;;;4893046;29;20045;-95
2020/12/16 10:15:25;;;;;;;9.65;2.63;;;8.20;99.90;;;;;;4893724;29;20029;-94
2020/12/16 10:17:52;;;;;;;14.85;2.80;;;8.20;99.90;;;;;;4910348;29;20035;-94
2020/12/16 10:20:18;;;;;;;9.25;2.60;;;8.20;99.90;;;;;;4912645;29;20059;-96
2020/12/16 10:22:44;;;;;;;11.23;2.42;;;8.20;99.90;;;;;;4898823;29;20033;-96
2020/12/16 10:25:12;;;;;;;16.90;2.90;;;8.30;99.90;;;;;;4912659;29;20083;-95
2020/12/16 10:27:38;;;;;;;8.63;2.15;;;8.20;99.90;;;;;;4914148;29;20009;-96
2020/12/16 10:30:05;;;;;;;9.23;1.90;;;8.20;99.90;;;;;;4913985;29;20036;-95
2020/12/16 10:32:31;;;;;;;8.07;2.05;;;8.20;99.90;;;;;;4917307;29;20123;-95
2020/12/16 10:34:57;;;;;;;10.65;2.60;;;8.20;99.90;;;;;;4898090;29;20069;-95
2020/12/16 10:37:25;;;;;;;13.13;2.28;;;8.30;99.90;;;;;;4896081;29;20032;-95
2020/12/16 10:39:52;;;;;;;11.27;3.08;;;8.30;99.90;;;;;;4912182;29;20036;-95
2020/12/16 10:42:20;;;;;;;10.65;2.45;;;8.30;99.90;;;;;;4913220;29;20024;-94
2020/12/16 10:44:46;;;;;;;6.15;2.17;;;8.30;99.90;;;;;;4911484;29;20033;-96
2020/12/16 10:47:12;;;;;;;13.43;2.30;;;8.30;99.90;;;;;;4894699;29;20048;-94
2020/12/16 10:49:39;;;;;;;8.88;1.63;;;8.30;99.90;;;;;;4910733;29;20049;-94
2020/12/16 10:52:12;;;;;;;6.50;1.83;;;8.30;99.90;;;;;;4915668;29;20004;-94
2020/12/16 10:54:38;;;;;;;8.95;1.98;;;8.30;99.90;;;;;;4900716;29;20047;-95
2020/12/16 10:57:05;;;;;;;14.30;2.10;;;8.30;99.90;;;;;;4883654;29;20032;-94
2020/12/16 10:59:30;;;;;;;10.82;2.22;;;8.30;99.90;;;;;;4887451;29;20036;-94
2020/12/16 11:02:11;;;;;;;11.85;2.03;;;8.30;99.90;;;;;;4880709;29;20062;-94
2020/12/16 11:04:37;;;;;;;7.55;2.70;;;8.30;99.90;;;;;;4925651;29;20473;-94
2020/12/16 11:07:02;;;;;;;9.20;2.00;;;8.40;99.90;;;;;;4914441;29;20025;-91
2020/12/16 11:09:28;;;;;;;9.43;1.75;;;8.30;99.90;;;;;;4895750;29;20024;-92
2020/12/16 11:11:54;;;;;;;10.65;1.73;;;8.40;99.90;;;;;;4915084;29;20039;-95
2020/12/16 11:14:21;;;;;;;7.47;1.80;;;8.40;99.90;;;;;;4907305;29;20041;-96
2020/12/16 11:16:48;;;;;;;15.27;2.33;;;8.40;99.90;;;;;;4904186;29;20043;-96
2020/12/16 11:19:17;;;;;;;8.55;2.50;;;8.40;99.90;;;;;;4906222;29;20534;-96
2020/12/16 11:21:48;;;;;;;10.93;2.38;;;8.40;99.90;;;;;;4901145;29;20029;-95
2020/12/16 11:24:14;;;;;;;;;;;8.40;99.90;;;;;;4917536;29;20025;-96
2020/12/16 11:26:42;;;;;;;6.97;2.15;;;8.30;99.90;;;;;;4901356;29;19920;-95
2020/12/16 11:29:10;;;;;;;9.82;2.13;;;8.40;99.90;;;;;;4912877;29;20052;-95
2020/12/16 11:31:47;;;;;;;7.65;1.90;;;8.40;99.90;;;;;;4910451;29;20029;-96
2020/12/16 11:34:15;;;;;;;9.30;2.13;;;8.40;99.90;;;;;;4893621;29;20033;-96
2020/12/16 11:36:43;;;;;;;7.60;2.05;;;8.40;99.90;;;;;;4916866;29;20021;-94
2020/12/16 11:39:09;;;;;;;9.60;2.72;;;8.40;99.90;;;;;;4911176;29;20016;-93
2020/12/16 11:41:36;;;;;;;7.53;1.90;;;8.40;99.90;;;;;;4933718;29;20502;-95
2020/12/16 11:44:03;;;;;;;6.07;1.75;;;8.40;99.90;;;;;;4903010;29;20020;-94
2020/12/16 11:46:30;;;;;;;21.10;2.45;;;8.30;99.90;;;;;;4912602;29;20036;-95
2020/12/16 11:48:57;;;;;;;9.80;2.55;;;8.30;99.90;;;;;;4897753;29;20033;-96
2020/12/16 11:51:24;;;;;;;18.77;4.20;;;8.40;99.90;;;;;;4895322;29;20088;-96
2020/12/16 11:53:49;;;;;;;10.43;2.72;;;8.30;99.90;;;;;;4908550;29;20521;-96
2020/12/16 11:56:15;;;;;;;12.63;2.80;;;8.30;99.90;;;;;;4910470;29;20044;-93
2020/12/16 11:58:41;;;;;;;12.65;3.03;;;8.30;99.90;;;;;;4907595;29;20394;-94
2020/12/16 12:01:09;;;;;;;9.30;2.38;;;8.30;99.90;;;;;;4906792;29;20479;-95
2020/12/16 12:03:35;;;;;;;13.10;2.55;;;8.30;99.90;;;;;;4924987;29;20024;-96
2020/12/16 12:06:00;;;;;;;8.82;2.00;;;8.30;99.90;;;;;;4906369;29;20040;-96
2020/12/16 12:08:27;;;;;;;9.50;2.75;;;8.30;99.90;;;;;;4924764;29;20028;-95
2020/12/16 12:10:52;;;;;;;12.05;2.47;;;8.20;99.90;;;;;;4911486;29;20157;-96
2020/12/16 12:13:19;;;;;;;11.63;3.60;;;8.30;99.90;;;;;;4893766;29;20021;-94
2020/12/16 12:15:44;;;;;;;11.32;2.80;;;8.20;99.90;;;;;;4895095;29;20132;-95
2020/12/16 12:18:10;;;;;;;9.20;2.42;;;8.30;99.90;;;;;;4910814;29;20061;-96
2020/12/16 12:20:36;;;;;;;19.02;2.72;;;8.30;99.90;;;;;;4893381;29;20553;-95
2020/12/16 12:23:02;;;;;;;12.65;2.45;;;8.30;99.90;;;;;;4903453;29;20027;-96
2020/12/16 12:25:27;;;;;;;10.70;2.70;;;8.30;99.90;;;;;;4914422;29;20482;-96
2020/12/16 12:27:53;;;;;;;8.90;2.40;;;8.30;99.90;;;;;;4907845;29;20091;-95
2020/12/16 12:30:19;;;;;;;8.57;2.33;;;8.30;99.90;;;;;;4921188;29;20032;-94
2020/12/16 12:32:44;;;;;;;11.23;2.60;;;8.30;99.90;;;;;;4887762;29;20193;-94
2020/12/16 12:35:10;;;;;;;5.30;2.30;;;8.30;99.90;;;;;;4889460;29;20028;-95
2020/12/16 12:37:36;;;;;;;9.95;2.42;;;8.30;99.90;;;;;;4883880;29;20028;-95
2020/12/16 12:40:02;;;;;;;11.70;2.85;;;8.30;99.90;;;;;;4887123;29;20063;-95
2020/12/16 12:42:27;;;;;;;6.50;2.00;;;8.30;99.90;;;;;;4883402;29;20029;-95
2020/12/16 12:44:54;;;;;;;10.45;2.70;;;8.30;99.90;;;;;;4884897;29;20493;-94
2020/12/16 12:47:19;;;;;;;13.73;2.50;;;8.30;99.90;;;;;;4882939;29;20029;-95
2020/12/16 12:49:45;;;;;;;8.70;2.58;;;8.30;99.90;;;;;;4882138;29;20041;-93
2020/12/16 12:52:11;;;;;;;9.52;2.35;;;8.30;99.90;;;;;;4881605;29;20115;-93
2020/12/16 12:54:37;;;;;;;6.47;2.20;;;8.30;99.90;;;;;;4882332;29;20028;-94
2020/12/16 12:57:03;;;;;;;6.75;2.47;;;8.30;99.90;;;;;;4905512;29;20039;-93
2020/12/16 12:59:28;;;;;;;7.45;2.50;;;8.30;99.90;;;;;;4905901;29;20467;-94
2020/12/16 13:01:54;;;;;;;9.65;2.40;;;8.20;99.90;;;;;;4903359;29;20144;-93
2020/12/16 13:04:20;;;;;;;7.90;2.70;;;8.30;99.90;;;;;;4883254;29;20032;-94
2020/12/16 13:06:46;;;;;;;10.52;2.53;;;8.20;99.90;;;;;;4898027;29;20092;-94
2020/12/16 13:09:13;;;;;;;7.60;2.50;;;8.20;99.90;;;;;;4897639;29;20028;-94
2020/12/16 13:11:39;;;;;;;9.60;2.78;;;8.20;99.90;;;;;;4881891;29;20394;-94
2020/12/16 13:14:05;;;;;;;3.90;1.95;;;8.20;99.90;;;;;;4897141;29;20044;-94
2020/12/16 13:16:31;;;;;;;11.00;2.47;;;8.20;99.90;;;;;;4897239;29;20029;-96
2020/12/16 13:18:56;;;;;;;8.48;2.65;;;8.20;99.90;;;;;;4896954;29;20035;-96
2020/12/16 13:21:22;;;;;;;6.63;2.28;;;8.20;99.90;;;;;;4899580;29;20075;-94
2020/12/16 13:23:48;;;;;;;6.35;2.65;;;8.20;99.90;;;;;;4901933;29;20036;-94
2020/12/16 13:26:13;;;;;;;9.60;2.78;;;8.20;99.90;;;;;;4882706;29;20039;-94
2020/12/16 13:28:39;;;;;;;9.73;3.00;;;8.20;99.90;;;;;;4882002;29;20060;-96
2020/12/16 13:31:05;;;;;;;5.32;1.75;;;8.20;99.90;;;;;;4894000;29;20387;-95
2020/12/16 13:33:31;;;;;;;5.72;2.15;;;8.20;99.90;;;;;;4879618;29;20070;-93
2020/12/16 13:35:57;;;;;;;7.13;2.60;;;8.20;99.90;;;;;;4884592;29;20028;-94
2020/12/16 13:38:24;;;;;;;10.48;2.97;;;8.20;99.90;;;;;;4900447;29;20033;-93
2020/12/16 13:40:53;;;;;;;8.75;2.22;;;8.20;99.90;;;;;;4884901;29;20487;-94
2020/12/16 13:43:20;;;;;;;5.70;2.25;;;8.30;99.90;;;;;;4900830;29;20494;-94
2020/12/16 13:45:46;;;;;;;6.72;2.53;;;8.20;99.90;;;;;;4900799;29;20487;-95
2020/12/16 13:48:12;;;;;;;7.03;2.05;;;8.30;99.90;;;;;;4900981;29;20028;-91
2020/12/16 13:50:38;;;;;;;8.30;2.30;;;8.30;99.90;;;;;;4900840;29;20057;-96
2020/12/16 13:53:04;;;;;;;6.75;2.40;;;8.30;99.90;;;;;;4896032;29;20124;-94
2020/12/16 13:55:30;;;;;;;5.25;2.50;;;8.30;99.90;;;;;;4882728;29;20123;-96
2020/12/16 13:57:56;;;;;;;8.45;3.15;;;8.30;99.90;;;;;;4898838;29;20495;-94
2020/12/16 14:00:21;;;;;;;6.35;2.40;;;8.30;99.90;;;;;;4886599;29;20039;-96
2020/12/16 14:02:50;;;;;;;5.75;1.08;;;8.30;99.90;;;;;;4895793;29;20040;-96
2020/12/16 14:05:15;;;;;;;1.88;1.10;;;8.20;99.90;;;;;;4894509;29;20044;-96
2020/12/16 14:07:43;;;;;;;3.13;1.23;;;8.10;99.90;;;;;;4891568;29;20036;-96
2020/12/16 14:10:09;;;;;;;4.15;1.13;;;8.10;99.90;;;;;;4890207;29;20087;-96
2020/12/16 14:12:35;;;;;;;3.83;0.90;;;8.00;99.90;;;;;;4894369;29;20041;-96
2020/12/16 14:15:02;;;;;;;1.05;0.70;;;7.90;99.90;;;;;;4894194;29;20037;-95
2020/12/16 14:17:28;;;;;;;1.35;0.57;;;7.90;99.90;;;;;;4897358;29;20063;-96
2020/12/16 14:19:54;;;;;;;1.95;0.63;;;7.80;99.90;;;;;;4893206;29;20510;-96
2020/12/16 14:22:22;;;;;;;2.58;0.52;;;7.80;99.90;;;;;;4905749;29;20024;-96
2020/12/16 14:24:48;;;;;;;1.63;0.80;;;7.80;99.90;;;;;;4891787;29;20048;-95
2020/12/16 14:27:13;;;;;;;1.85;0.60;;;7.80;99.90;;;;;;4902699;29;20032;-95
2020/12/16 14:29:39;;;;;;;1.30;0.70;;;7.70;99.90;;;;;;4906726;29;20028;-95
2020/12/16 14:32:05;;;;;;;0.93;0.50;;;7.80;99.90;;;;;;4908888;29;20025;-96
2020/12/16 14:34:31;;;;;;;3.72;0.80;;;7.80;99.90;;;;;;4912877;29;20032;-96
2020/12/16 14:36:57;;;;;;;1.02;0.63;;;7.80;99.90;;;;;;4908409;29;20028;-95
2020/12/16 14:39:25;;;;;;;0.82;0.60;;;7.90;99.90;;;;;;4905634;29;20036;-95
2020/12/16 14:42:00;;;;;;;5.93;2.20;;;7.90;99.90;;;;;;4909942;29;20052;-95
2020/12/16 14:44:29;;;;;;;4.65;2.50;;;7.90;99.90;;;;;;4919075;29;20072;-96
2020/12/16 14:46:59;;;;;;;14.60;6.65;;;8.00;99.90;;;;;;4929238;29;20026;-95
2020/12/16 14:49:25;;;;;;;11.57;5.22;;;7.90;99.90;;;;;;4942538;29;20038;-96
2020/12/16 14:51:51;;;;;;;7.30;3.38;;;8.00;99.90;;;;;;4917308;29;20031;-96
2020/12/16 14:54:17;;;;;;;2.45;1.17;;;8.00;99.90;;;;;;4899897;29;20028;-96
2020/12/16 14:56:47;;;;;;;1.20;0.68;;;7.90;99.90;;;;;;4914842;29;20056;-96
2020/12/16 14:59:14;;;;;;;3.65;1.23;;;7.90;99.90;;;;;;4920086;29;20104;-96